Time;durP1;ratioP1;P1;durP2;ratioP2;P2;SDS_P1;SDS_P2;PMS_P1;PMS_P2;Temp;Humidity;BMP_temperature;BMP_pressure;BME280_temperature;BME280_humidity;BME280_pressure;Samples;Min_cycle;Max_cycle;Signal;HPM_P1;HPM_P2
2022/04/21 00:01:22;;;;;;;1.70;1.70;;;;;;;7.47;83.05;92171.84;6217973;22;20154;-78
2022/04/21 00:03:49;;;;;;;3.03;2.23;;;;;;;7.44;82.89;92186.19;6216334;22;20387;-77
2022/04/21 00:06:16;;;;;;;1.87;1.83;;;;;;;7.57;83.00;92210.00;6217525;22;20503;-78
2022/04/21 00:08:43;;;;;;;1.63;1.53;;;;;;;7.70;82.10;92193.59;6216560;22;20154;-78
2022/04/21 00:11:11;;;;;;;1.77;1.77;;;;;;;7.53;82.55;92188.38;6217213;22;20538;-77
2022/04/21 00:13:38;;;;;;;2.03;1.87;;;;;;;7.67;82.49;92190.34;6216124;22;20636;-78
2022/04/21 00:16:07;;;;;;;2.47;2.37;;;;;;;8.12;80.94;92198.59;6216916;22;20154;-77
2022/04/21 00:18:35;;;;;;;2.27;2.17;;;;;;;8.16;79.56;92199.31;6216541;22;20157;-78
2022/04/21 00:21:02;;;;;;;2.73;2.63;;;;;;;8.17;79.01;92191.69;6216144;22;20564;-77
2022/04/21 00:23:29;;;;;;;1.67;1.57;;;;;;;8.01;80.32;92225.88;6216128;22;20154;-78
2022/04/21 00:25:58;;;;;;;2.60;2.50;;;;;;;8.06;80.61;92224.00;6216361;22;20434;-78
2022/04/21 00:28:26;;;;;;;4.87;2.23;;;;;;;7.83;79.92;92163.75;6216253;22;20154;-79
2022/04/21 00:30:53;;;;;;;2.43;2.33;;;;;;;7.62;79.52;92145.28;6216176;22;20473;-78
2022/04/21 00:33:22;;;;;;;1.87;1.77;;;;;;;8.09;79.84;92183.66;6216523;22;20457;-78
2022/04/21 00:35:50;;;;;;;1.90;1.80;;;;;;;7.26;81.42;92132.47;6217634;22;20430;-78
2022/04/21 00:38:17;;;;;;;1.57;1.57;;;;;;;7.96;80.91;92225.25;6216378;22;20586;-78
2022/04/21 00:40:44;;;;;;;1.53;1.53;;;;;;;7.56;80.16;92158.09;6216152;22;20146;-78
2022/04/21 00:43:12;;;;;;;1.27;1.27;;;;;;;7.64;80.03;92185.44;6215521;22;20491;-78
2022/04/21 00:45:39;;;;;;;1.67;1.67;;;;;;;8.05;80.49;92239.19;6215426;22;20515;-78
2022/04/21 00:48:07;;;;;;;1.17;1.17;;;;;;;7.67;80.90;92150.13;6214379;22;20435;-78
2022/04/21 00:50:38;;;;;;;1.27;1.27;;;;;;;7.60;81.07;92161.31;6216426;22;20437;-78
2022/04/21 00:53:05;;;;;;;1.17;1.13;;;;;;;7.85;81.41;92229.88;6216799;22;20185;-78
2022/04/21 00:55:33;;;;;;;2.67;2.57;;;;;;;7.79;80.65;92204.97;6216356;22;20419;-78
2022/04/21 00:58:05;;;;;;;3.27;2.43;;;;;;;7.75;81.55;92231.94;6215974;22;20455;-78
2022/04/21 01:00:32;;;;;;;2.93;2.73;;;;;;;7.68;80.51;92235.56;6215737;22;20460;-78
2022/04/21 01:02:59;;;;;;;3.57;3.13;;;;;;;7.90;80.83;92251.44;6217461;22;20410;-78
2022/04/21 01:05:30;;;;;;;5.27;4.40;;;;;;;7.34;81.40;92178.19;6216207;22;20372;-78
2022/04/21 01:08:01;;;;;;;3.70;3.50;;;;;;;7.75;81.47;92229.41;6216434;22;20435;-78
2022/04/21 01:10:30;;;;;;;4.83;4.37;;;;;;;7.57;80.90;92202.47;6217401;22;20522;-78
2022/04/21 01:12:58;;;;;;;6.60;3.37;;;;;;;7.64;81.37;92243.28;6215676;22;20582;-78
2022/04/21 01:15:26;;;;;;;5.43;4.20;;;;;;;7.31;81.21;92193.41;6215785;22;20223;-78
2022/04/21 01:17:55;;;;;;;5.70;5.20;;;;;;;7.41;81.24;92197.19;6216342;22;20476;-78
2022/04/21 01:20:24;;;;;;;4.30;3.90;;;;;;;7.77;80.92;92236.91;6215801;22;20173;-79
2022/04/21 01:22:52;;;;;;;4.17;3.90;;;;;;;7.91;80.72;92250.56;6215467;22;20544;-79
2022/04/21 01:25:20;;;;;;;5.10;4.20;;;;;;;7.65;79.95;92203.00;6216698;22;20158;-78
2022/04/21 01:27:49;;;;;;;6.00;4.43;;;;;;;8.12;80.15;92243.88;6215891;22;20538;-78
2022/04/21 01:30:16;;;;;;;5.53;3.53;;;;;;;8.01;80.34;92248.50;6216008;22;20153;-78
2022/04/21 01:32:45;;;;;;;4.63;3.43;;;;;;;7.62;80.25;92160.38;6215414;22;20445;-78
2022/04/21 01:35:13;;;;;;;3.77;3.57;;;;;;;7.66;80.26;92154.34;6216078;22;20513;-79
2022/04/21 01:43:12;;;;;;;10.57;3.97;;;;;;;7.84;79.40;92200.56;6215938;22;20558;-79
2022/04/21 01:45:41;;;;;;;3.77;3.47;;;;;;;7.72;79.35;92165.84;6215758;22;20535;-79
2022/04/21 01:48:09;;;;;;;3.97;3.67;;;;;;;8.23;79.32;92238.41;6216092;22;20565;-78
2022/04/21 01:50:36;;;;;;;3.80;3.50;;;;;;;7.72;79.89;92164.16;6217263;22;20530;-78
2022/04/21 01:53:05;;;;;;;4.73;4.33;;;;;;;8.48;78.82;92231.56;6216736;22;20547;-79
2022/04/21 01:55:32;;;;;;;6.90;3.93;;;;;;;8.03;78.17;92175.53;6216533;22;20431;-78
2022/04/21 01:58:00;;;;;;;5.20;4.53;;;;;;;8.13;78.19;92195.22;6217778;22;20366;-78
2022/04/21 02:00:28;;;;;;;5.13;4.83;;;;;;;8.46;78.29;92204.81;6218179;22;20569;-78
2022/04/21 02:02:55;;;;;;;4.67;4.37;;;;;;;7.93;79.85;92170.06;6218480;22;20491;-79
2022/04/21 02:05:22;;;;;;;4.10;3.80;;;;;;;8.44;79.12;92236.78;6221633;22;20154;-78
2022/04/21 02:07:50;;;;;;;9.53;4.67;;;;;;;8.27;79.37;92205.56;6224156;22;20211;-79
2022/04/21 02:10:21;;;;;;;4.27;3.97;;;;;;;8.67;79.03;92234.16;6228995;22;20410;-78
2022/04/21 02:12:49;;;;;;;1.93;1.90;;;;;;;7.82;79.51;92140.31;6228641;22;20235;-78
2022/04/21 02:15:18;;;;;;;1.50;1.50;;;;;;;8.10;77.07;92164.34;6228718;22;20553;-78
2022/04/21 02:17:46;;;;;;;1.53;1.53;;;;;;;8.58;76.24;92240.38;6229338;22;20427;-78
2022/04/21 02:20:15;;;;;;;1.03;1.03;;;;;;;8.24;77.52;92200.63;6225381;22;20161;-78
2022/04/21 02:22:43;;;;;;;1.23;1.23;;;;;;;8.59;76.19;92238.66;6220456;22;20220;-78
2022/04/21 02:25:11;;;;;;;1.50;1.40;;;;;;;8.40;75.54;92190.78;6215547;22;20538;-78
2022/04/21 02:27:41;;;;;;;1.50;1.50;;;;;;;8.60;75.98;92198.34;6215544;22;20534;-78
2022/04/21 02:30:09;;;;;;;2.20;1.33;;;;;;;8.59;77.11;92236.97;6216951;22;20466;-79
2022/04/21 02:32:38;;;;;;;1.53;1.37;;;;;;;8.08;76.27;92171.13;6216283;22;20451;-78
2022/04/21 02:35:06;;;;;;;1.20;1.10;;;;;;;8.19;76.30;92174.84;6215368;22;20292;-78
2022/04/21 02:37:36;;;;;;;1.30;1.30;;;;;;;8.38;76.46;92199.28;6215819;22;20395;-78
2022/04/21 02:40:04;;;;;;;1.27;1.27;;;;;;;7.84;76.33;92143.56;6215328;22;20597;-78
2022/04/21 02:42:31;;;;;;;1.63;1.57;;;;;;;8.04;75.46;92150.31;6215426;22;20580;-78
2022/04/21 02:45:00;;;;;;;0.90;0.90;;;;;;;8.13;74.16;92157.47;6215512;22;20402;-77
2022/04/21 02:47:28;;;;;;;1.77;1.67;;;;;;;8.20;73.50;92196.59;6216120;22;20393;-77
2022/04/21 02:49:55;;;;;;;3.20;2.57;;;;;;;8.31;73.64;92206.25;6215900;22;20529;-77
2022/04/21 02:52:23;;;;;;;2.57;1.77;;;;;;;8.69;73.45;92248.28;6215238;22;20157;-77
2022/04/21 02:57:35;;;;;;;1.57;1.57;;;;;;;8.35;74.67;92211.97;6215644;22;20215;-77
2022/04/21 03:00:07;;;;;;;1.40;1.40;;;;;;;8.63;74.64;92241.00;6215389;22;20534;-78
2022/04/21 03:02:35;;;;;;;1.90;1.80;;;;;;;7.89;74.80;92186.13;6214803;22;20559;-78
2022/04/21 03:05:02;;;;;;;1.93;1.83;;;;;;;7.97;75.55;92224.38;6216797;22;20421;-78
2022/04/21 03:07:29;;;;;;;2.03;1.90;;;;;;;8.05;75.17;92219.06;6217243;22;20390;-78
2022/04/21 03:09:56;;;;;;;1.70;1.67;;;;;;;7.82;74.02;92189.78;6217090;22;20531;-77
2022/04/21 03:12:26;;;;;;;2.50;2.40;;;;;;;7.77;73.74;92167.34;6217122;22;20522;-78
2022/04/21 03:14:55;;;;;;;4.53;3.70;;;;;;;8.39;73.95;92249.56;6217338;22;20486;-78
2022/04/21 03:17:25;;;;;;;3.63;3.43;;;;;;;8.52;73.87;92249.88;6217193;22;20499;-78
2022/04/21 03:19:52;;;;;;;3.17;2.63;;;;;;;7.67;75.39;92168.53;6217546;22;20382;-77
2022/04/21 03:25:06;;;;;;;2.37;2.17;;;;;;;8.50;72.73;92218.91;6218486;22;20522;-78
2022/04/21 03:27:34;;;;;;;1.60;1.60;;;;;;;8.19;71.89;92174.84;6217079;22;20434;-78
2022/04/21 03:30:01;;;;;;;1.87;1.83;;;;;;;8.18;71.20;92172.38;6217146;22;20387;-78
2022/04/21 03:32:32;;;;;;;2.07;1.97;;;;;;;8.42;72.17;92178.13;6216676;22;20575;-78
2022/04/21 03:35:00;;;;;;;1.57;1.47;;;;;;;8.57;73.34;92260.56;6216479;22;20216;-78
2022/04/21 03:37:30;;;;;;;3.33;2.17;;;;;;;8.72;72.78;92254.91;6217500;22;20224;-78
2022/04/21 03:39:58;;;;;;;3.37;3.07;;;;;;;8.74;72.05;92258.16;6217072;22;20546;-77
2022/04/21 03:42:27;;;;;;;3.20;2.93;;;;;;;8.71;71.62;92226.41;6216871;22;20383;-78
2022/04/21 03:44:56;;;;;;;3.43;3.33;;;;;;;8.77;70.53;92263.09;6217003;22;20481;-78
2022/04/21 03:47:24;;;;;;;12.43;8.47;;;;;;;8.78;69.94;92234.50;6217020;22;20177;-77
2022/04/21 03:49:53;;;;;;;118.97;44.17;;;;;;;8.88;70.67;92271.03;6216831;22;20511;-77
2022/04/21 03:52:22;;;;;;;18.47;11.83;;;;;;;8.41;70.51;92182.34;6216607;22;20540;-77
2022/04/21 03:54:50;;;;;;;10.57;5.23;;;;;;;8.43;70.61;92207.47;6217519;22;20416;-77
2022/04/21 03:57:17;;;;;;;3.77;3.50;;;;;;;8.43;71.52;92240.19;6216940;22;20161;-78
2022/04/21 03:59:44;;;;;;;2.90;2.70;;;;;;;8.29;71.83;92235.66;6215868;22;20530;-78
2022/04/21 04:02:11;;;;;;;2.20;2.10;;;;;;;8.05;72.08;92209.00;6215741;22;20463;-78
2022/04/21 04:04:39;;;;;;;2.60;2.50;;;;;;;8.29;71.83;92239.00;6216843;22;20510;-78
2022/04/21 04:12:49;;;;;;;3.77;3.43;;;;;;;7.59;73.93;92235.91;6123928;23;20509;-78
2022/04/21 04:15:16;;;;;;;3.77;3.47;;;;;;;7.19;75.01;92203.06;6194245;22;20646;-78
2022/04/21 04:17:43;;;;;;;4.40;4.00;;;;;;;7.03;76.07;92192.78;6216272;22;20506;-77
2022/04/21 04:20:12;;;;;;;6.30;3.97;;;;;;;7.35;75.10;92196.59;6217812;22;20241;-77
2022/04/21 04:22:41;;;;;;;9.30;6.13;;;;;;;7.92;74.10;92269.00;6215938;22;20408;-77
2022/04/21 04:25:10;;;;;;;32.13;16.50;;;;;;;8.28;71.73;92265.03;6216366;22;20435;-77
2022/04/21 04:27:37;;;;;;;20.27;10.50;;;;;;;8.29;69.98;92270.88;6216557;22;20423;-77
2022/04/21 04:30:05;;;;;;;13.70;8.23;;;;;;;8.53;69.65;92254.03;6217350;22;20406;-76
2022/04/21 04:32:33;;;;;;;13.87;6.87;;;;;;;8.49;69.26;92227.34;6216215;22;20158;-77
2022/04/21 04:35:00;;;;;;;6.20;4.70;;;;;;;8.55;69.22;92224.59;6216108;22;20266;-77
2022/04/21 04:37:28;;;;;;;3.83;3.53;;;;;;;8.63;69.70;92230.09;6216093;22;20219;-76
2022/04/21 04:39:56;;;;;;;2.57;2.47;;;;;;;8.63;68.95;92198.19;6217982;22;20525;-76
2022/04/21 04:42:23;;;;;;;5.17;4.03;;;;;;;8.70;69.42;92226.44;6216006;22;20422;-77
2022/04/21 04:46:34;;;;;;;4.50;4.20;;;;;;;8.60;69.52;92227.72;6216173;22;20216;-76
2022/04/21 04:47:39;;;;;;;4.17;3.77;;;;;;;8.29;68.72;92173.56;6214544;22;20452;-76
2022/04/21 04:50:11;;;;;;;108.97;39.83;;;;;;;8.67;68.96;92197.19;6187322;22;20412;-75
2022/04/21 04:52:38;;;;;;;32.93;15.93;;;;;;;8.98;69.17;92242.03;6215594;22;20440;-74
2022/04/21 04:55:09;;;;;;;23.07;14.23;;;;;;;9.18;69.88;92263.06;6215850;22;20441;-75
2022/04/21 04:57:37;;;;;;;5.37;4.97;;;;;;;8.92;70.94;92246.50;6215018;22;20581;-74
2022/04/21 05:00:04;;;;;;;6.00;4.57;;;;;;;9.11;70.68;92245.66;6214177;22;20354;-74
2022/04/21 05:02:32;;;;;;;58.10;24.47;;;;;;;9.19;69.20;92257.09;6214823;22;20213;-73
2022/04/21 05:04:59;;;;;;;11.00;8.70;;;;;;;9.05;68.99;92242.59;6215000;22;20537;-75
2022/04/21 05:07:26;;;;;;;6.47;6.03;;;;;;;9.22;68.17;92275.44;6215465;22;20574;-75
2022/04/21 05:09:54;;;;;;;13.30;10.87;;;;;;;8.85;68.69;92257.72;6215306;22;20545;-74
2022/04/21 05:12:22;;;;;;;9.57;8.87;;;;;;;9.11;67.33;92275.09;6216250;22;20395;-72
2022/04/21 05:14:51;;;;;;;6.83;4.20;;;;;;;9.01;66.82;92273.84;6214976;22;20185;-73
2022/04/21 05:17:18;;;;;;;10.50;3.83;;;;;;;9.00;66.79;92295.72;6215376;22;20229;-74
2022/04/21 05:20:23;;;;;;;17.03;5.20;;;;;;;9.16;65.36;92305.94;6215415;22;20421;-73
2022/04/21 05:22:58;;;;;;;3.27;2.90;;;;;;;8.40;67.11;92253.69;6214502;22;20558;-75
2022/04/21 05:25:31;;;;;;;1.90;1.80;;;;;;;8.16;65.86;92232.03;6214601;22;20173;-74
2022/04/21 05:28:01;;;;;;;1.57;1.57;;;;;;;8.81;65.38;92309.09;6214760;22;20507;-75
2022/04/21 05:33:15;;;;;;;27.07;12.37;;;;;;;8.85;65.04;92316.47;6216768;22;20497;-75
2022/04/21 05:35:45;;;;;;;11.70;10.00;;;;;;;8.69;65.09;92286.06;6214485;22;20685;-76
2022/04/21 05:38:16;;;;;;;5.17;4.67;;;;;;;8.45;65.59;92245.97;6215816;22;20468;-76
2022/04/21 05:40:44;;;;;;;11.13;7.10;;;;;;;8.51;65.70;92253.25;6215623;22;20189;-76
2022/04/21 05:43:17;;;;;;;8.63;5.40;;;;;;;8.71;65.21;92271.72;6214979;22;20161;-75
2022/04/21 05:45:44;;;;;;;5.17;4.87;;;;;;;8.91;65.49;92291.03;6215264;22;20173;-75
2022/04/21 05:48:13;;;;;;;14.47;9.97;;;;;;;8.90;65.84;92286.06;6217346;22;20154;-75
2022/04/21 05:50:44;;;;;;;3.63;3.43;;;;;;;8.83;65.17;92272.91;6216785;22;20582;-77
2022/04/21 05:53:20;;;;;;;33.13;15.30;;;;;;;8.60;65.42;92215.13;6214432;22;20528;-75
2022/04/21 05:55:52;;;;;;;18.77;6.97;;;;;;;9.28;65.28;92285.28;6214236;22;20447;-74
2022/04/21 05:58:22;;;;;;;6.93;5.37;;;;;;;9.06;64.98;92214.00;6215312;22;20158;-76
2022/04/21 06:00:53;;;;;;;5.67;5.10;;;;;;;9.02;64.53;92204.91;6213486;22;20598;-76
2022/04/21 06:03:22;;;;;;;8.97;4.43;;;;;;;9.40;63.43;92284.75;6214906;22;20398;-75
2022/04/21 06:05:49;;;;;;;6.43;5.60;;;;;;;9.54;62.89;92289.97;6215599;22;20558;-75
2022/04/21 06:08:41;;;;;;;6.47;5.97;;;;;;;9.45;63.08;92208.91;6215178;22;20561;-75
2022/04/21 06:11:08;;;;;;;5.03;4.63;;;;;;;9.90;63.84;92279.13;6215263;22;20515;-74
2022/04/21 06:13:38;;;;;;;7.80;7.33;;;;;;;10.06;63.69;92276.72;6214842;22;20154;-74
2022/04/21 06:16:06;;;;;;;7.03;5.53;;;;;;;10.04;63.36;92264.16;6214295;22;20527;-76
2022/04/21 06:18:33;;;;;;;6.73;6.03;;;;;;;9.57;62.63;92211.69;6214944;22;20475;-75
2022/04/21 06:21:13;;;;;;;23.20;14.33;;;;;;;10.30;61.49;92278.16;6215321;22;20180;-75
2022/04/21 06:23:41;;;;;;;59.93;23.10;;;;;;;9.63;61.68;92220.69;6212000;22;20472;-75
2022/04/21 06:26:09;;;;;;;21.23;10.30;;;;;;;10.05;60.95;92280.94;6213225;22;20533;-74
2022/04/21 06:28:41;;;;;;;9.53;8.60;;;;;;;10.16;62.57;92293.94;6214633;22;20439;-74
2022/04/21 06:31:08;;;;;;;30.97;15.80;;;;;;;10.10;61.81;92283.25;6214785;22;20394;-75
2022/04/21 06:33:36;;;;;;;12.87;8.30;;;;;;;10.30;61.75;92293.28;6216052;22;20537;-75
2022/04/21 06:36:06;;;;;;;6.40;5.20;;;;;;;10.47;61.36;92295.84;6214001;22;20586;-73
2022/04/21 06:38:33;;;;;;;17.93;10.77;;;;;;;10.50;61.08;92293.16;6214312;22;20534;-74
2022/04/21 06:41:01;;;;;;;8.20;6.53;;;;;;;10.66;61.66;92278.09;6215458;22;20452;-74
2022/04/21 06:49:01;;;;;;;10.93;5.97;;;;;;;10.91;60.95;92270.94;6216217;22;20205;-76
2022/04/21 06:51:28;;;;;;;78.70;26.17;;;;;;;11.09;59.50;92299.56;6215685;22;20529;-74
2022/04/21 06:53:56;;;;;;;19.80;12.50;;;;;;;11.06;58.92;92289.59;6216107;22;20548;-74
2022/04/21 06:56:23;;;;;;;6.10;5.57;;;;;;;11.19;59.36;92305.78;6215732;22;20550;-74
2022/04/21 06:58:51;;;;;;;14.87;7.00;;;;;;;11.27;59.23;92306.19;6216535;22;20812;-74
2022/04/21 07:01:19;;;;;;;8.10;5.53;;;;;;;11.26;60.50;92291.94;6216489;22;20539;-74
2022/04/21 07:03:47;;;;;;;7.87;5.60;;;;;;;10.90;61.50;92281.13;6216459;22;20457;-75
2022/04/21 07:06:14;;;;;;;6.43;5.87;;;;;;;11.15;62.11;92276.50;6216377;22;20445;-76
2022/04/21 07:08:42;;;;;;;4.07;3.77;;;;;;;11.25;61.44;92292.84;6215874;22;20211;-73
2022/04/21 07:11:09;;;;;;;3.97;3.67;;;;;;;11.51;60.93;92304.97;6215950;22;20413;-73
2022/04/21 07:13:36;;;;;;;5.30;4.73;;;;;;;11.71;61.26;92296.38;6216061;22;20181;-73
2022/04/21 07:16:04;;;;;;;5.50;4.37;;;;;;;11.71;59.47;92273.59;6215936;22;20580;-74
2022/04/21 07:18:32;;;;;;;3.57;3.27;;;;;;;12.08;57.64;92297.78;6216403;22;20158;-73
2022/04/21 07:21:01;;;;;;;4.33;4.03;;;;;;;11.89;58.14;92317.38;6216557;22;20632;-74
2022/04/21 07:23:29;;;;;;;5.87;5.27;;;;;;;11.66;59.39;92270.47;6216257;22;20412;-74
2022/04/21 07:26:15;;;;;;;8.17;5.97;;;;;;;12.20;58.17;92322.47;6215870;22;20538;-73
2022/04/21 07:28:44;;;;;;;3.30;3.13;;;;;;;11.82;57.61;92313.53;6216163;22;20546;-73
2022/04/21 07:31:13;;;;;;;3.47;3.23;;;;;;;11.58;57.85;92275.94;6216707;22;20158;-73
2022/04/21 07:33:42;;;;;;;15.03;10.87;;;;;;;12.22;58.34;92325.72;6218496;22;20419;-73
2022/04/21 07:36:09;;;;;;;13.27;7.77;;;;;;;12.02;57.67;92323.44;6215922;22;20256;-74
2022/04/21 07:38:36;;;;;;;19.80;12.53;;;;;;;12.34;58.03;92319.97;6215503;22;20431;-74
2022/04/21 07:41:04;;;;;;;24.00;12.10;;;;;;;12.41;57.17;92311.16;6216101;22;20400;-74
2022/04/21 07:43:35;;;;;;;14.40;6.67;;;;;;;12.00;56.94;92256.84;6214904;22;20413;-76
2022/04/21 07:46:02;;;;;;;27.47;11.33;;;;;;;11.75;56.84;92299.56;6215930;22;20181;-77
2022/04/21 07:49:44;;;;;;;14.63;7.67;;;;;;;11.82;56.75;92303.41;6216837;22;20422;-76
2022/04/21 07:51:18;;;;;;;11.73;8.33;;;;;;;12.12;56.88;92286.59;6215430;22;20483;-73
2022/04/21 07:53:46;;;;;;;6.90;6.23;;;;;;;12.43;56.69;92314.44;6216033;22;20463;-75
2022/04/21 07:56:13;;;;;;;5.60;5.07;;;;;;;12.33;56.01;92325.16;6215600;22;20554;-75
2022/04/21 07:58:40;;;;;;;4.93;4.63;;;;;;;12.52;54.63;92335.91;6214600;22;20180;-75
2022/04/21 08:01:13;;;;;;;6.40;5.90;;;;;;;12.93;54.42;92332.81;6215071;22;20496;-76
2022/04/21 08:03:43;;;;;;;7.80;4.87;;;;;;;12.61;56.23;92287.28;6212607;22;20165;-76
2022/04/21 08:06:11;;;;;;;6.30;5.77;;;;;;;12.87;55.29;92311.16;6211441;22;20479;-76
2022/04/21 08:08:40;;;;;;;8.17;6.57;;;;;;;12.83;54.91;92290.25;6213463;22;20420;-76
2022/04/21 08:11:12;;;;;;;6.53;6.03;;;;;;;12.84;55.10;92329.09;6213910;22;20460;-77
2022/04/21 08:13:39;;;;;;;5.27;4.23;;;;;;;13.08;55.69;92316.72;6213282;22;20471;-76
2022/04/21 08:16:07;;;;;;;5.33;4.87;;;;;;;13.27;56.15;92307.19;6214279;22;20412;-74
2022/04/21 08:18:34;;;;;;;4.07;3.83;;;;;;;13.31;54.56;92312.91;6215374;22;20224;-74
2022/04/21 08:21:01;;;;;;;4.83;4.57;;;;;;;13.51;54.77;92270.25;6216756;22;20147;-73
2022/04/21 08:23:28;;;;;;;6.33;4.77;;;;;;;13.99;54.44;92321.53;6215731;22;20212;-74
2022/04/21 08:34:12;;;;;;;6.13;5.73;;;;;;;14.35;54.15;92305.75;6215097;22;20605;-73
2022/04/21 08:36:39;;;;;;;6.60;6.10;;;;;;;14.14;54.34;92309.63;6214791;22;20162;-73
2022/04/21 08:39:07;;;;;;;6.37;4.87;;;;;;;13.64;52.49;92273.66;6215359;22;20590;-73
2022/04/21 08:41:37;;;;;;;4.13;3.80;;;;;;;14.55;51.14;92345.22;6215313;22;20478;-75
2022/04/21 08:44:06;;;;;;;3.90;3.70;;;;;;;14.57;50.82;92326.41;6215816;22;20396;-74
2022/04/21 08:46:34;;;;;;;4.63;3.90;;;;;;;14.81;51.10;92337.59;6215124;22;20527;-75
2022/04/21 08:49:06;;;;;;;3.00;2.80;;;;;;;14.71;51.94;92285.66;6213545;22;20514;-75
2022/04/21 08:51:34;;;;;;;3.30;3.10;;;;;;;14.47;51.79;92330.44;6214326;22;20594;-75
2022/04/21 08:54:03;;;;;;;3.23;3.10;;;;;;;14.87;51.33;92303.34;6215056;22;20189;-74
2022/04/21 08:56:31;;;;;;;5.00;4.70;;;;;;;15.12;51.88;92294.91;6214746;22;20620;-73
2022/04/21 08:58:59;;;;;;;3.53;3.23;;;;;;;15.38;51.29;92296.56;6214912;22;20153;-72
2022/04/21 09:01:27;;;;;;;3.80;3.50;;;;;;;15.34;50.32;92310.41;6216216;22;20173;-74
2022/04/21 09:03:54;;;;;;;12.87;2.80;;;;;;;15.45;50.35;92314.78;6213482;22;20219;-75
2022/04/21 09:06:22;;;;;;;3.93;3.60;;;;;;;16.16;48.57;92326.09;6215088;22;20542;-77
2022/04/21 09:09:12;;;;;;;4.90;4.60;;;;;;;16.60;46.94;92339.25;6215776;22;20235;-76
2022/04/21 09:11:43;;;;;;;4.43;4.03;;;;;;;16.38;48.44;92325.44;6215151;22;20153;-76
2022/04/21 09:14:17;;;;;;;4.40;3.40;;;;;;;16.08;48.04;92327.53;6215224;22;20446;-76
2022/04/21 09:16:45;;;;;;;2.57;2.47;;;;;;;15.40;49.34;92314.28;6215420;22;20178;-75
2022/04/21 09:19:12;;;;;;;2.63;2.53;;;;;;;15.54;49.42;92309.97;6212881;22;20165;-77
2022/04/21 09:21:42;;;;;;;10.57;6.40;;;;;;;15.71;51.89;92278.28;6216000;22;20515;-77
2022/04/21 09:24:26;;;;;;;5.40;4.93;;;;;;;15.83;51.38;92287.59;6215972;22;20452;-77
2022/04/21 09:26:57;;;;;;;6.63;6.20;;;;;;;15.92;51.16;92281.09;6214948;22;20173;-76
2022/04/21 09:29:28;;;;;;;6.27;5.67;;;;;;;15.98;50.80;92258.56;6213920;22;20373;-76
2022/04/21 09:31:58;;;;;;;5.13;4.73;;;;;;;16.84;48.81;92305.19;6214645;22;20413;-76
2022/04/21 09:34:26;;;;;;;6.17;5.00;;;;;;;16.54;49.69;92297.94;6214664;22;20249;-77
2022/04/21 09:36:55;;;;;;;6.97;5.80;;;;;;;16.08;49.72;92257.00;6214736;22;20263;-76
2022/04/21 09:39:23;;;;;;;11.30;8.67;;;;;;;15.44;48.64;92240.16;6214693;22;20386;-77
2022/04/21 09:41:54;;;;;;;52.63;19.80;;;;;;;16.08;50.09;92257.00;6213415;22;20603;-76
2022/04/21 09:47:19;;;;;;;7.00;5.30;;;;;;;15.62;49.63;92297.53;6211154;22;20617;-76
2022/04/21 09:49:47;;;;;;;5.13;4.73;;;;;;;15.57;47.94;92314.84;6212012;22;20498;-76
2022/04/21 09:52:26;;;;;;;5.00;4.33;;;;;;;15.25;48.67;92265.22;6212589;22;20389;-76
2022/04/21 09:54:53;;;;;;;3.00;2.80;;;;;;;15.13;47.22;92245.66;6213713;22;20570;-75
2022/04/21 09:57:30;;;;;;;4.83;4.40;;;;;;;15.91;48.29;92297.28;6214296;22;20153;-77
2022/04/21 09:59:59;;;;;;;5.00;4.57;;;;;;;15.67;50.63;92213.97;6214898;22;20183;-76
2022/04/21 10:02:28;;;;;;;4.70;4.30;;;;;;;15.70;49.74;92230.81;6212727;22;20742;-76
2022/04/21 10:04:56;;;;;;;5.20;4.80;;;;;;;15.61;48.67;92272.16;6212656;22;20753;-76
2022/04/21 10:07:24;;;;;;;5.70;4.03;;;;;;;15.44;48.92;92291.06;6212207;22;20424;-77
2022/04/21 10:09:52;;;;;;;8.30;6.53;;;;;;;15.34;48.44;92267.16;6215494;22;20468;-76
2022/04/21 10:12:21;;;;;;;4.87;4.60;;;;;;;15.52;47.90;92295.69;6215553;22;20511;-76
2022/04/21 10:14:48;;;;;;;5.80;5.47;;;;;;;15.65;49.26;92248.13;6214967;22;20500;-75
2022/04/21 10:17:17;;;;;;;8.77;5.13;;;;;;;15.56;48.60;92267.38;6212947;22;20496;-75
2022/04/21 10:19:49;;;;;;;4.63;4.33;;;;;;;15.99;48.26;92279.75;6215556;22;20538;-75
2022/04/21 10:22:17;;;;;;;3.63;3.43;;;;;;;16.63;46.12;92288.03;6216312;22;20514;-76
2022/04/21 10:24:46;;;;;;;5.40;4.90;;;;;;;17.04;43.57;92257.00;6216498;22;20462;-76
2022/04/21 10:27:38;;;;;;;94.10;22.13;;;;;;;17.79;43.11;92245.41;6215144;22;20554;-75
2022/04/21 10:30:16;;;;;;;78.20;22.98;;;;;;;18.47;42.37;92257.16;6214901;22;20508;-75
2022/04/21 10:32:50;;;;;;;5.85;5.35;;;;;;;18.85;41.74;92256.69;6214262;22;20550;-76
2022/04/21 10:35:33;;;;;;;6.53;5.95;;;;;;;19.05;41.56;92291.75;6212077;22;20535;-74
2022/04/21 10:38:19;;;;;;;4.63;4.32;;;;;;;20.16;39.11;92323.63;6215188;22;20466;-76
2022/04/21 10:41:03;;;;;;;4.18;3.95;;;;;;;20.21;39.74;92322.28;6214124;22;20219;-75
2022/04/21 10:44:04;;;;;;;4.13;3.78;;;;;;;20.56;39.08;92321.09;6216758;22;20449;-76
2022/04/21 10:46:31;;;;;;;13.20;6.85;;;;;;;21.74;39.37;92308.03;6217627;22;20465;-77
2022/04/21 10:49:00;;;;;;;7.00;6.40;;;;;;;22.22;38.03;92301.94;6216077;22;20534;-74
2022/04/21 10:58:51;;;;;;;3.67;3.47;;;;;;;24.54;31.43;92330.97;6214490;22;20259;-76
2022/04/21 11:01:31;;;;;;;5.00;4.70;;;;;;;24.28;32.98;92315.50;6216419;22;20537;-74
2022/04/21 11:04:24;;;;;;;6.18;5.65;;;;;;;23.36;33.91;92301.44;6216634;22;20541;-74
2022/04/21 11:06:54;;;;;;;4.65;4.35;;;;;;;23.10;34.71;92296.19;6215350;22;20498;-75
2022/04/21 11:09:41;;;;;;;3.67;3.47;;;;;;;22.90;35.31;92287.78;6214047;22;20444;-74
2022/04/21 11:12:11;;;;;;;3.60;3.40;;;;;;;21.58;37.47;92260.69;6216274;22;20398;-73
2022/04/21 11:14:40;;;;;;;3.42;3.22;;;;;;;20.58;39.61;92260.16;6215651;22;20484;-74
2022/04/21 11:17:08;;;;;;;3.55;3.20;;;;;;;20.62;40.93;92241.78;6215578;22;20185;-74
2022/04/21 11:19:44;;;;;;;8.15;5.57;;;;;;;20.51;41.09;92234.19;6215790;22;20415;-74
2022/04/21 11:22:13;;;;;;;3.65;3.45;;;;;;;19.96;41.38;92227.84;6216165;22;20449;-74
2022/04/21 11:25:03;;;;;;;3.20;3.00;;;;;;;19.92;41.45;92225.66;6215633;22;20533;-74
2022/04/21 11:27:34;;;;;;;3.67;3.47;;;;;;;19.12;43.38;92203.25;6216572;22;20158;-74
2022/04/21 11:30:08;;;;;;;4.55;3.83;;;;;;;19.23;44.02;92190.38;6215639;22;20519;-75
2022/04/21 11:32:36;;;;;;;4.82;4.05;;;;;;;18.96;44.45;92193.47;6214088;22;20603;-75
2022/04/21 11:35:07;;;;;;;3.75;3.45;;;;;;;19.16;43.70;92168.78;6215495;22;20433;-74
2022/04/21 11:37:51;;;;;;;7.25;4.80;;;;;;;19.58;42.60;92184.13;6213868;22;20379;-73
2022/04/21 11:40:20;;;;;;;4.28;3.67;;;;;;;19.96;42.62;92196.25;6214714;22;20395;-74
2022/04/21 11:42:49;;;;;;;4.60;3.78;;;;;;;20.01;42.04;92207.72;6214979;22;20723;-74
2022/04/21 11:45:21;;;;;;;4.05;3.40;;;;;;;20.31;41.50;92186.34;6215270;22;20551;-74
2022/04/21 11:47:48;;;;;;;4.22;3.92;;;;;;;20.24;41.44;92196.31;6215407;22;20534;-74
2022/04/21 11:50:25;;;;;;;5.10;4.70;;;;;;;19.96;43.80;92155.22;6214042;22;20162;-73
2022/04/21 11:52:56;;;;;;;4.40;4.07;;;;;;;20.08;43.29;92172.94;6213353;22;20592;-74
2022/04/21 11:55:25;;;;;;;4.65;4.35;;;;;;;20.26;43.13;92144.88;6214650;22;20526;-73
2022/04/21 11:57:53;;;;;;;6.53;6.13;;;;;;;20.55;43.39;92162.91;6216533;22;20519;-73
2022/04/21 12:08:35;;;;;;;3.40;3.20;;;;;;;19.83;42.95;92130.63;6218876;22;20537;-73
2022/04/21 12:11:27;;;;;;;3.35;3.15;;;;;;;20.02;41.08;92142.69;6219263;22;20154;-76
2022/04/21 12:14:01;;;;;;;4.03;2.85;;;;;;;20.48;40.74;92174.63;6219582;22;20223;-74
2022/04/21 12:16:44;;;;;;;3.58;3.30;;;;;;;20.63;39.70;92143.28;6215755;22;20590;-74
2022/04/21 12:19:19;;;;;;;14.93;2.95;;;;;;;20.52;39.97;92170.84;6217005;22;20438;-73
2022/04/21 12:22:02;;;;;;;2.95;2.83;;;;;;;21.08;40.84;92155.53;6192077;22;20522;-75
2022/04/21 12:24:32;;;;;;;3.00;2.80;;;;;;;20.72;40.06;92148.56;6217471;22;20485;-75
2022/04/21 12:27:02;;;;;;;3.15;2.95;;;;;;;20.58;40.38;92116.41;6216871;22;20555;-73
2022/04/21 12:29:31;;;;;;;3.47;3.28;;;;;;;21.08;39.14;92179.47;6214021;22;20412;-74
2022/04/21 12:32:02;;;;;;;3.67;3.47;;;;;;;21.53;39.06;92163.41;6214449;22;20591;-73
2022/04/21 12:34:30;;;;;;;5.88;4.90;;;;;;;21.57;38.61;92174.25;6214182;22;20458;-73
2022/04/21 12:37:01;;;;;;;4.03;3.72;;;;;;;21.34;37.30;92148.88;6214423;22;20562;-73
2022/04/21 12:39:29;;;;;;;3.17;2.97;;;;;;;21.09;38.10;92123.75;6215591;22;20366;-73
2022/04/21 12:41:58;;;;;;;3.72;3.53;;;;;;;21.25;38.70;92174.59;6214289;22;20640;-73